Time;durP1;ratioP1;P1;durP2;ratioP2;P2;SDS_P1;SDS_P2;PMS_P1;PMS_P2;Temp;Humidity;BMP_temperature;BMP_pressure;BME280_temperature;BME280_humidity;BME280_pressure;Samples;Min_cycle;Max_cycle;Signal;HPM_P1;HPM_P2
2022/02/01 00:04:00;;;;;;;23.33;5.78;;;;;;;;;;5026360;28;20099;-68
2022/02/01 00:09:24;;;;;;;34.28;5.95;;;;;;;;;;5039980;28;19946;-72
2022/02/01 00:12:11;;;;;;;20.27;4.38;;;;;;;;;;5038275;28;20044;-67
2022/02/01 00:36:31;;;;;;;27.48;5.68;;;;;;;;;;5024206;28;20040;-68
2022/02/01 00:39:02;;;;;;;33.30;5.60;;;;;;;;;;5020764;28;20024;-68
2022/02/01 00:41:31;;;;;;;30.33;5.30;;;;;;;;;;5038368;28;20048;-68
2022/02/01 00:43:58;;;;;;;32.35;6.97;;;;;;;;;;5046943;28;20062;-68
2022/02/01 00:46:24;;;;;;;26.02;4.85;;;;;;;;;;5041846;28;20151;-68
2022/02/01 00:48:50;;;;;;;17.65;3.60;;;;;;;;;;5042919;28;20033;-68
2022/02/01 00:51:17;;;;;;;24.38;3.45;;;;;;;;;;5037426;28;20024;-68
2022/02/01 00:53:43;;;;;;;20.20;4.60;;;;;;;;;;5036082;28;20039;-68
2022/02/01 00:56:10;;;;;;;21.35;3.45;;;;;;;;;;5057301;28;20036;-68
2022/02/01 00:58:38;;;;;;;11.98;2.67;;;;;;;;;;5035043;28;20028;-68
2022/02/01 01:01:04;;;;;;;12.70;2.40;;;;;;;;;;5034486;28;20029;-68
2022/02/01 01:03:30;;;;;;;16.98;3.30;;;;;;;;;;5045164;28;20036;-68
2022/02/01 01:05:57;;;;;;;17.52;4.00;;;;;;;;;;5041793;28;20021;-68
2022/02/01 01:08:23;;;;;;;12.93;2.72;;;;;;;;;;5042155;28;20091;-68
2022/02/01 01:10:49;;;;;;;8.50;2.55;;;;;;;;;;5041891;28;20033;-67
2022/02/01 01:38:45;;;;;;;13.25;2.28;;;;;;;;;;5038776;28;20044;-68
2022/02/01 01:43:42;;;;;;;14.68;3.15;;;;;;;;;;5037450;28;20146;-67
2022/02/01 01:54:01;;;;;;;16.27;3.60;;;;;;;;;;5051276;28;20029;-68
2022/02/01 01:56:30;;;;;;;17.95;4.00;;;;;;;;;;5032113;28;20517;-67
2022/02/01 01:58:56;;;;;;;28.52;5.20;;;;;;;;;;5037986;28;20053;-67
2022/02/01 02:01:23;;;;;;;20.90;4.32;;;;;;;;;;5036895;28;20068;-68
2022/02/01 02:03:50;;;;;;;24.17;4.65;;;;;;;;;;5037943;28;20490;-68
2022/02/01 02:06:17;;;;;;;20.45;3.60;;;;;;;;;;5042085;28;20059;-68
2022/02/01 02:08:47;;;;;;;23.08;4.47;;;;;;;;;;5050792;28;20067;-68
2022/02/01 02:11:35;;;;;;;18.00;3.53;;;;;;;;;;5041578;28;20091;-68
2022/02/01 02:14:21;;;;;;;19.27;4.85;;;;;;;;;;5033715;28;20099;-68
2022/02/01 02:16:52;;;;;;;21.98;4.72;;;;;;;;;;5037882;28;20362;-68
2022/02/01 02:19:19;;;;;;;16.17;4.82;;;;;;;;;;5032181;28;20424;-68
2022/02/01 02:21:50;;;;;;;18.27;3.75;;;;;;;;;;5047370;28;20103;-68
2022/02/01 02:24:16;;;;;;;23.77;4.25;;;;;;;;;;5029446;28;20056;-68
2022/02/01 02:26:43;;;;;;;17.75;4.55;;;;;;;;;;5033165;28;20026;-68
2022/02/01 02:29:10;;;;;;;22.60;4.85;;;;;;;;;;5035387;28;20033;-68
2022/02/01 02:31:38;;;;;;;19.40;4.15;;;;;;;;;;5030393;28;20017;-68
2022/02/01 02:34:11;;;;;;;16.23;3.70;;;;;;;;;;5037287;28;20734;-68
2022/02/01 02:36:42;;;;;;;17.95;4.20;;;;;;;;;;5034968;28;20030;-68
2022/02/01 02:41:54;;;;;;;16.10;4.15;;;;;;;;;;5035084;28;20037;-68
2022/02/01 02:47:06;;;;;;;14.57;3.38;;;;;;;;;;5038498;28;20677;-68
2022/02/01 02:49:32;;;;;;;20.55;4.28;;;;;;;;;;5039998;28;20451;-68
2022/02/01 02:51:58;;;;;;;24.05;5.90;;;;;;;;;;5044483;28;20049;-68
2022/02/01 02:54:25;;;;;;;15.30;2.80;;;;;;;;;;5034946;28;20017;-68
2022/02/01 02:56:53;;;;;;;6.47;3.35;;;;;;;;;;5033197;28;20040;-68
2022/02/01 02:59:21;;;;;;;10.68;3.45;;;;;;;;;;5034844;28;20049;-68
2022/02/01 03:01:48;;;;;;;15.35;2.90;;;;;;;;;;5034568;28;20029;-68
2022/02/01 03:04:17;;;;;;;17.90;3.42;;;;;;;;;;5041365;28;20099;-68
2022/02/01 03:06:44;;;;;;;9.18;3.40;;;;;;;;;;5036032;28;20033;-68
2022/02/01 03:09:11;;;;;;;14.65;3.53;;;;;;;;;;5037780;28;20023;-68
2022/02/01 03:11:38;;;;;;;17.73;4.20;;;;;;;;;;5030624;28;20052;-68
2022/02/01 03:14:16;;;;;;;16.77;4.88;;;;;;;;;;5027718;28;20044;-68
2022/02/01 03:21:57;;;;;;;14.70;3.90;;;;;;;;;;5031291;28;20110;-68
2022/02/01 03:24:23;;;;;;;18.17;4.45;;;;;;;;;;5030335;28;20084;-68
2022/02/01 03:26:49;;;;;;;20.20;5.35;;;;;;;;;;5033091;28;20080;-68
2022/02/01 03:29:15;;;;;;;17.98;5.20;;;;;;;;;;5026278;28;20029;-68
2022/02/01 03:31:41;;;;;;;16.67;5.55;;;;;;;;;;5023575;28;20033;-68
2022/02/01 03:34:08;;;;;;;24.05;5.75;;;;;;;;;;5025558;28;20037;-68
2022/02/01 03:36:34;;;;;;;20.92;5.68;;;;;;;;;;5025112;28;20030;-68
2022/02/01 03:39:01;;;;;;;17.98;5.28;;;;;;;;;;5027664;28;20033;-68
2022/02/01 03:41:27;;;;;;;19.45;4.57;;;;;;;;;;5031076;28;20025;-69
2022/02/01 03:43:54;;;;;;;15.38;4.30;;;;;;;;;;5028326;28;20152;-69
2022/02/01 03:46:20;;;;;;;18.85;4.68;;;;;;;;;;5026169;28;20112;-68
2022/02/01 03:48:47;;;;;;;17.80;4.53;;;;;;;;;;5024368;28;20404;-68
2022/02/01 03:51:13;;;;;;;17.67;4.03;;;;;;;;;;5036266;28;20017;-68
2022/02/01 03:53:40;;;;;;;22.38;4.35;;;;;;;;;;5025616;28;20720;-69
2022/02/01 03:56:06;;;;;;;14.32;4.03;;;;;;;;;;5025667;28;20063;-68
2022/02/01 03:58:33;;;;;;;18.63;3.63;;;;;;;;;;5026987;28;20021;-71
2022/02/01 04:00:59;;;;;;;12.35;3.53;;;;;;;;;;5024372;28;20053;-68
2022/02/01 04:03:26;;;;;;;10.13;2.80;;;;;;;;;;5024598;28;20279;-69
2022/02/01 04:05:52;;;;;;;13.63;3.40;;;;;;;;;;5034118;28;20493;-69
2022/02/01 04:08:19;;;;;;;12.38;2.97;;;;;;;;;;5029885;28;20038;-68
2022/02/01 04:10:49;;;;;;;10.57;2.17;;;;;;;;;;5023197;28;20037;-68
2022/02/01 04:13:15;;;;;;;7.43;1.80;;;;;;;;;;5043380;28;20037;-70
2022/02/01 04:15:42;;;;;;;3.28;1.60;;;;;;;;;;5034130;28;20402;-70
2022/02/01 04:18:08;;;;;;;4.88;1.95;;;;;;;;;;5049691;28;20033;-70
2022/02/01 04:20:35;;;;;;;6.50;2.00;;;;;;;;;;5032370;28;20558;-68
2022/02/01 04:23:01;;;;;;;6.93;2.13;;;;;;;;;;5032154;28;20088;-68
2022/02/01 04:25:27;;;;;;;8.20;2.45;;;;;;;;;;5032782;28;20029;-69
2022/02/01 04:27:53;;;;;;;12.32;2.90;;;;;;;;;;5030905;28;20501;-68
2022/02/01 04:30:20;;;;;;;17.83;2.85;;;;;;;;;;5031039;28;20029;-68
2022/02/01 04:32:48;;;;;;;14.45;4.13;;;;;;;;;;5032173;28;20540;-69
2022/02/01 04:35:16;;;;;;;10.77;3.53;;;;;;;;;;5033909;28;20111;-68
2022/02/01 04:37:43;;;;;;;14.65;3.83;;;;;;;;;;5031483;28;20060;-69
2022/02/01 04:40:11;;;;;;;17.05;3.05;;;;;;;;;;5030356;28;20021;-68
2022/02/01 04:42:38;;;;;;;16.00;3.63;;;;;;;;;;5033381;28;20127;-71
2022/02/01 04:45:06;;;;;;;16.60;2.50;;;;;;;;;;5036365;28;20448;-69
2022/02/01 04:47:33;;;;;;;6.13;2.33;;;;;;;;;;5031874;28;20029;-69
2022/02/01 04:49:59;;;;;;;7.32;2.58;;;;;;;;;;5034388;28;20047;-71
2022/02/01 04:52:26;;;;;;;11.38;2.38;;;;;;;;;;5026288;28;20029;-69
2022/02/01 04:54:53;;;;;;;11.50;2.50;;;;;;;;;;5033600;28;20455;-68
2022/02/01 04:57:19;;;;;;;6.25;1.90;;;;;;;;;;5031968;28;20029;-68
2022/02/01 04:59:45;;;;;;;8.30;1.75;;;;;;;;;;5041166;28;20495;-70
2022/02/01 05:02:11;;;;;;;8.85;2.42;;;;;;;;;;5034417;28;20544;-68
2022/02/01 05:04:37;;;;;;;5.88;2.08;;;;;;;;;;5036382;28;20037;-69
2022/02/01 05:07:03;;;;;;;4.63;1.88;;;;;;;;;;5033676;28;20531;-68
2022/02/01 05:09:31;;;;;;;5.85;2.20;;;;;;;;;;5032037;28;20511;-70
2022/02/01 05:12:00;;;;;;;6.70;2.00;;;;;;;;;;5031566;28;20084;-69
2022/02/01 05:30:48;;;;;;;13.23;3.17;;;;;;;;;;5039784;28;20035;-95
2022/02/01 05:33:14;;;;;;;15.82;3.10;;;;;;;;;;5039867;28;20033;-94
2022/02/01 05:35:40;;;;;;;21.75;3.53;;;;;;;;;;5039578;28;20108;-95
2022/02/01 05:38:06;;;;;;;17.90;3.55;;;;;;;;;;5040336;28;20025;-96
2022/02/01 05:40:35;;;;;;;16.88;4.18;;;;;;;;;;5039560;28;20021;-95
2022/02/01 05:43:09;;;;;;;16.58;2.97;;;;;;;;;;5039491;28;20112;-96
2022/02/01 05:45:37;;;;;;;14.68;3.50;;;;;;;;;;5039461;28;20111;-96
2022/02/01 05:48:05;;;;;;;19.27;4.63;;;;;;;;;;5039552;28;20025;-95
2022/02/01 05:50:39;;;;;;;17.48;4.03;;;;;;;;;;5039352;28;20032;-95
2022/02/01 05:53:06;;;;;;;17.83;3.30;;;;;;;;;;5039707;28;20025;-95
2022/02/01 05:55:34;;;;;;;19.90;3.95;;;;;;;;;;5039286;28;20392;-95
2022/02/01 05:58:00;;;;;;;14.73;2.92;;;;;;;;;;5038964;28;20021;-95
2022/02/01 06:00:27;;;;;;;12.57;2.53;;;;;;;;;;5039536;28;20111;-95
2022/02/01 06:02:55;;;;;;;11.85;2.95;;;;;;;;;;5039028;28;20028;-96
2022/02/01 06:05:24;;;;;;;18.02;2.88;;;;;;;;;;5038960;28;20021;-95
2022/02/01 06:07:50;;;;;;;12.55;2.70;;;;;;;;;;5039275;28;20163;-95
2022/02/01 06:10:16;;;;;;;16.35;2.30;;;;;;;;;;5039094;28;20058;-95
2022/02/01 06:12:43;;;;;;;14.88;3.85;;;;;;;;;;5038881;28;20055;-96
2022/02/01 06:15:10;;;;;;;14.57;2.92;;;;;;;;;;5038877;28;20075;-95
2022/02/01 06:17:39;;;;;;;8.45;2.80;;;;;;;;;;5038820;28;20479;-95
2022/02/01 06:20:05;;;;;;;12.90;2.88;;;;;;;;;;5038810;28;20646;-94
2022/02/01 06:22:39;;;;;;;16.67;3.08;;;;;;;;;;5039191;28;20025;-96
2022/02/01 06:25:06;;;;;;;21.30;3.72;;;;;;;;;;5039613;28;20103;-96
2022/02/01 06:27:32;;;;;;;16.33;3.67;;;;;;;;;;5038927;28;20543;-95
2022/02/01 06:29:58;;;;;;;11.90;3.40;;;;;;;;;;5038712;28;20024;-95
2022/02/01 06:32:29;;;;;;;13.05;2.05;;;;;;;;;;5038660;28;20467;-95
2022/02/01 06:34:56;;;;;;;13.15;2.80;;;;;;;;;;5038808;28;20481;-95
2022/02/01 06:37:22;;;;;;;10.85;1.90;;;;;;;;;;5038374;28;20505;-95
2022/02/01 06:39:48;;;;;;;13.60;2.10;;;;;;;;;;5038943;28;20035;-95
2022/02/01 06:42:16;;;;;;;15.00;2.78;;;;;;;;;;5038398;28;20029;-95
2022/02/01 06:44:42;;;;;;;18.13;2.72;;;;;;;;;;5038272;28;20032;-95
2022/02/01 06:47:08;;;;;;;9.95;2.10;;;;;;;;;;5038243;28;20013;-95
2022/02/01 06:49:34;;;;;;;13.80;2.55;;;;;;;;;;5038365;28;20155;-95
2022/02/01 06:52:03;;;;;;;12.18;2.65;;;;;;;;;;5038584;28;20029;-95
2022/02/01 06:54:29;;;;;;;10.93;2.67;;;;;;;;;;5038275;28;20537;-95
2022/02/01 06:56:55;;;;;;;12.60;2.40;;;;;;;;;;5037848;28;20032;-95
2022/02/01 06:59:24;;;;;;;11.95;2.80;;;;;;;;;;5038086;28;20033;-95
2022/02/01 07:01:50;;;;;;;12.85;2.30;;;;;;;;;;5038384;28;20094;-95
2022/02/01 07:04:16;;;;;;;11.10;2.90;;;;;;;;;;5037853;28;20115;-95
2022/02/01 07:06:45;;;;;;;21.08;3.85;;;;;;;;;;5037902;28;20021;-95
2022/02/01 07:09:14;;;;;;;16.33;3.72;;;;;;;;;;5037941;28;20025;-95
2022/02/01 07:11:40;;;;;;;17.23;2.60;;;;;;;;;;5037763;28;20021;-95
2022/02/01 07:14:07;;;;;;;13.82;3.20;;;;;;;;;;5037750;28;20439;-95
2022/02/01 07:16:36;;;;;;;11.75;2.75;;;;;;;;;;5037761;28;20021;-95
2022/02/01 07:19:02;;;;;;;9.55;2.42;;;;;;;;;;5037757;28;20032;-95
2022/02/01 07:21:29;;;;;;;17.05;2.42;;;;;;;;;;5037654;28;20055;-94
2022/02/01 07:23:55;;;;;;;13.30;2.65;;;;;;;;;;5037417;28;20070;-95
2022/02/01 07:26:24;;;;;;;11.23;2.30;;;;;;;;;;5037487;28;20017;-95
2022/02/01 07:28:50;;;;;;;12.68;2.75;;;;;;;;;;5037478;28;20024;-95
2022/02/01 07:31:17;;;;;;;7.97;1.90;;;;;;;;;;5034080;28;20140;-94
2022/02/01 07:33:46;;;;;;;11.63;2.55;;;;;;;;;;5034859;28;20056;-95
2022/02/01 07:36:16;;;;;;;8.25;1.75;;;;;;;;;;5034226;28;20021;-94
2022/02/01 07:38:48;;;;;;;8.65;2.65;;;;;;;;;;5034177;28;20033;-96
2022/02/01 07:41:16;;;;;;;8.10;5.32;;;;;;;;;;5034020;28;20112;-96
2022/02/01 07:43:45;;;;;;;7.30;1.98;;;;;;;;;;5033866;28;20030;-96
2022/02/01 07:46:19;;;;;;;4.95;2.30;;;;;;;;;;5033907;28;20025;-96
2022/02/01 07:48:47;;;;;;;9.20;3.50;;;;;;;;;;5033888;28;20421;-96
2022/02/01 07:51:16;;;;;;;17.05;7.75;;;;;;;;;;5033704;28;20393;-96
2022/02/01 07:53:49;;;;;;;4.82;2.10;;;;;;;;;;5033557;28;20139;-95
2022/02/01 07:56:16;;;;;;;3.00;1.58;;;;;;;;;;5034013;28;20029;-95
2022/02/01 07:58:46;;;;;;;3.95;1.33;;;;;;;;;;5033801;28;20390;-95
2022/02/01 08:01:15;;;;;;;7.30;2.03;;;;;;;;;;5033582;28;20029;-95
2022/02/01 08:03:48;;;;;;;9.80;1.90;;;;;;;;;;5033818;28;20026;-96
2022/02/01 08:06:17;;;;;;;10.05;4.28;;;;;;;;;;5033714;28;20021;-95
2022/02/01 08:08:43;;;;;;;13.48;4.93;;;;;;;;;;5033575;28;20029;-95
2022/02/01 08:11:13;;;;;;;7.13;1.38;;;;;;;;;;5033757;28;20032;-95
2022/02/01 08:19:11;;;;;;;6.13;1.13;;;;;;;;;;5035020;28;20051;-95
2022/02/01 08:21:44;;;;;;;5.70;1.17;;;;;;;;;;5033408;28;20033;-95
2022/02/01 08:24:10;;;;;;;3.35;1.42;;;;;;;;;;5033676;28;20027;-96
2022/02/01 08:26:37;;;;;;;4.88;1.38;;;;;;;;;;5033689;28;20014;-96
2022/02/01 08:29:10;;;;;;;6.85;1.30;;;;;;;;;;5033535;28;20028;-95
2022/02/01 08:31:36;;;;;;;7.82;2.10;;;;;;;;;;5033076;28;20045;-95
2022/02/01 08:34:03;;;;;;;5.75;1.42;;;;;;;;;;5033241;28;20367;-95
2022/02/01 08:36:29;;;;;;;10.50;1.42;;;;;;;;;;5033490;28;20029;-95
2022/02/01 08:38:55;;;;;;;6.70;1.75;;;;;;;;;;5033208;28;20061;-95
2022/02/01 08:41:21;;;;;;;7.68;1.40;;;;;;;;;;5033198;28;20413;-95
2022/02/01 08:43:47;;;;;;;10.60;2.40;;;;;;;;;;5033096;28;20060;-95
2022/02/01 08:46:16;;;;;;;4.47;1.60;;;;;;;;;;5033242;28;20111;-96
2022/02/01 08:48:42;;;;;;;5.35;1.52;;;;;;;;;;5033231;28;20403;-95
2022/02/01 08:51:11;;;;;;;5.88;2.40;;;;;;;;;;5033255;28;20477;-95
2022/02/01 08:53:48;;;;;;;8.43;1.80;;;;;;;;;;5033167;28;20037;-95
2022/02/01 08:59:00;;;;;;;4.90;2.03;;;;;;;;;;5033381;28;20116;-95
2022/02/01 09:01:27;;;;;;;10.88;1.73;;;;;;;;;;5033075;28;20381;-95
2022/02/01 09:03:53;;;;;;;8.18;1.60;;;;;;;;;;5032897;28;20432;-94
2022/02/01 09:06:22;;;;;;;5.95;1.92;;;;;;;;;;5036113;28;20051;-95
2022/02/01 09:08:48;;;;;;;3.80;1.90;;;;;;;;;;5036963;28;20531;-95
2022/02/01 09:11:17;;;;;;;11.23;3.10;;;;;;;;;;5036884;28;20084;-95
2022/02/01 09:13:51;;;;;;;11.73;2.95;;;;;;;;;;5037081;28;20026;-95
2022/02/01 09:16:20;;;;;;;8.95;3.03;;;;;;;;;;5036919;28;20029;-96
2022/02/01 09:18:46;;;;;;;7.85;1.35;;;;;;;;;;5036656;28;20553;-94
2022/02/01 09:21:12;;;;;;;10.57;2.38;;;;;;;;;;5036474;28;20547;-95
2022/02/01 09:23:39;;;;;;;7.20;1.60;;;;;;;;;;5036382;28;20060;-95
2022/02/01 09:26:05;;;;;;;6.95;1.50;;;;;;;;;;5036510;28;20032;-95
2022/02/01 09:28:31;;;;;;;6.00;1.48;;;;;;;;;;5036425;28;20070;-95
2022/02/01 09:30:58;;;;;;;8.98;2.00;;;;;;;;;;5036275;28;20079;-96
2022/02/01 09:33:27;;;;;;;12.68;1.75;;;;;;;;;;5044647;28;20030;-96
2022/02/01 09:35:56;;;;;;;12.10;1.85;;;;;;;;;;5039888;28;20121;-96
2022/02/01 09:38:29;;;;;;;4.68;1.92;;;;;;;;;;5037180;28;20463;-96
2022/02/01 09:40:56;;;;;;;6.25;1.20;;;;;;;;;;5037039;28;20095;-96
2022/02/01 09:43:30;;;;;;;4.30;1.58;;;;;;;;;;5037191;28;20040;-95
2022/02/01 09:45:57;;;;;;;5.00;1.17;;;;;;;;;;5037034;28;20116;-96
2022/02/01 09:48:37;;;;;;;6.18;1.65;;;;;;;;;;5036265;28;20569;-96
2022/02/01 09:51:14;;;;;;;;;;;;;;;;;;;;;
2022/02/01 09:53:50;;;;;;;8.10;1.40;;;;;;;;;;5037427;28;20025;-95
2022/02/01 09:56:17;;;;;;;7.18;1.30;;;;;;;;;;5035986;28;20083;-95
2022/02/01 09:58:47;;;;;;;7.90;2.40;;;;;;;;;;5036180;28;20022;-96
2022/02/01 10:01:18;;;;;;;7.25;1.58;;;;;;;;;;5036049;28;20478;-95
2022/02/01 10:03:47;;;;;;;8.80;1.83;;;;;;;;;;5036637;28;20116;-96
2022/02/01 10:06:17;;;;;;;6.32;1.48;;;;;;;;;;5037320;28;20032;-96
2022/02/01 10:09:08;;;;;;;12.48;2.05;;;;;;;;;;5036584;28;20021;-96
2022/02/01 10:11:37;;;;;;;3.95;1.30;;;;;;;;;;5036350;28;20474;-96
2022/02/01 10:14:06;;;;;;;8.07;2.05;;;;;;;;;;5036126;28;20055;-96
2022/02/01 10:16:48;;;;;;;6.90;1.63;;;;;;;;;;5035364;28;20134;-94
2022/02/01 10:19:17;;;;;;;14.02;1.90;;;;;;;;;;5036773;28;20478;-96
2022/02/01 10:21:50;;;;;;;12.43;2.60;;;;;;;;;;5036653;28;20026;-95
2022/02/01 10:24:27;;;;;;;11.35;2.20;;;;;;;;;;5036582;28;20025;-96
2022/02/01 10:27:03;;;;;;;;;;;;;;;;;;;;;
2022/02/01 10:29:30;;;;;;;7.20;2.13;;;;;;;;;;5037886;28;20021;-96
2022/02/01 10:32:00;;;;;;;6.53;1.63;;;;;;;;;;5036667;28;20091;-96
2022/02/01 10:37:17;;;;;;;6.32;1.80;;;;;;;;;;5038018;28;20075;-96
2022/02/01 10:39:46;;;;;;;7.15;1.20;;;;;;;;;;5036767;28;20033;-96
2022/02/01 10:42:16;;;;;;;4.15;1.35;;;;;;;;;;5035898;28;20030;-96
2022/02/01 10:44:49;;;;;;;7.35;1.48;;;;;;;;;;5036695;28;20021;-96
2022/02/01 10:47:17;;;;;;;4.50;1.90;;;;;;;;;;5036735;28;20033;-96
2022/02/01 10:49:47;;;;;;;5.65;1.58;;;;;;;;;;5035989;28;20056;-96
2022/02/01 10:52:20;;;;;;;9.15;2.42;;;;;;;;;;5038965;28;20041;-96
2022/02/01 10:54:47;;;;;;;5.10;1.65;;;;;;;;;;5037824;28;20104;-96
2022/02/01 10:57:16;;;;;;;3.13;1.23;;;;;;;;;;5036086;28;20031;-96
2022/02/01 10:59:50;;;;;;;7.18;1.67;;;;;;;;;;5035964;28;20026;-96
2022/02/01 11:02:16;;;;;;;7.40;1.88;;;;;;;;;;5035492;28;20040;-96
2022/02/01 11:04:49;;;;;;;3.40;1.63;;;;;;;;;;5035605;28;20021;-96
2022/02/01 11:07:18;;;;;;;9.70;1.92;;;;;;;;;;5035520;28;20128;-96
2022/02/01 11:09:47;;;;;;;10.52;2.03;;;;;;;;;;5035433;28;20022;-96
2022/02/01 11:12:28;;;;;;;13.32;1.50;;;;;;;;;;5035547;28;20021;-96
2022/02/01 11:14:57;;;;;;;14.82;2.58;;;;;;;;;;5034623;28;20033;-95
2022/02/01 11:17:37;;;;;;;14.13;5.10;;;;;;;;;;5034549;28;20036;-96
2022/02/01 11:20:19;;;;;;;14.98;3.80;;;;;;;;;;5034621;28;20029;-96
2022/02/01 11:22:48;;;;;;;8.85;4.53;;;;;;;;;;5034164;28;20049;-96
2022/02/01 11:25:28;;;;;;;7.53;2.53;;;;;;;;;;5034351;28;20037;-96
2022/02/01 11:30:49;;;;;;;7.35;3.15;;;;;;;;;;5038810;28;20029;-96
2022/02/01 11:33:17;;;;;;;12.32;3.28;;;;;;;;;;5037434;28;20371;-95
2022/02/01 11:35:46;;;;;;;9.73;3.85;;;;;;;;;;5037753;28;20119;-96
2022/02/01 11:38:25;;;;;;;11.95;4.00;;;;;;;;;;5037535;28;20057;-95
2022/02/01 11:40:59;;;;;;;18.02;8.70;;;;;;;;;;5038035;28;20021;-95
2022/02/01 11:43:28;;;;;;;10.85;3.60;;;;;;;;;;5037468;28;20485;-96
2022/02/01 11:45:57;;;;;;;11.57;3.15;;;;;;;;;;5037611;28;20129;-96
2022/02/01 11:48:27;;;;;;;7.70;2.40;;;;;;;;;;5037531;28;20021;-95
2022/02/01 11:50:57;;;;;;;7.63;1.60;;;;;;;;;;5037221;28;20033;-95
2022/02/01 11:53:26;;;;;;;5.85;2.67;;;;;;;;;;5037280;28;20025;-96
2022/02/01 11:55:56;;;;;;;6.07;2.63;;;;;;;;;;5038223;28;20028;-96
2022/02/01 11:58:30;;;;;;;6.30;1.67;;;;;;;;;;5037365;28;20029;-95
2022/02/01 12:00:57;;;;;;;4.88;1.70;;;;;;;;;;5037185;28;20033;-95
2022/02/01 12:03:31;;;;;;;4.75;1.60;;;;;;;;;;5037105;28;20496;-96
2022/02/01 12:06:04;;;;;;;5.68;1.80;;;;;;;;;;5037125;28;20440;-96
2022/02/01 12:08:36;;;;;;;13.15;5.20;;;;;;;;;;5037504;28;20021;-95
2022/02/01 12:11:07;;;;;;;8.93;3.95;;;;;;;;;;5037050;28;20024;-95
2022/02/01 12:13:37;;;;;;;3.13;1.40;;;;;;;;;;5036964;28;20128;-95
2022/02/01 12:16:08;;;;;;;2.05;1.20;;;;;;;;;;5040337;28;20024;-95
2022/02/01 12:18:55;;;;;;;6.22;1.40;;;;;;;;;;5037040;28;20029;-95
2022/02/01 12:21:26;;;;;;;5.05;1.17;;;;;;;;;;5036887;28;20029;-94
2022/02/01 12:23:53;;;;;;;4.75;1.42;;;;;;;;;;5037775;28;20419;-95
2022/02/01 12:26:26;;;;;;;5.28;1.55;;;;;;;;;;5036892;28;20021;-94
2022/02/01 12:28:54;;;;;;;5.18;1.73;;;;;;;;;;5036518;28;20481;-95
2022/02/01 12:31:21;;;;;;;5.55;2.13;;;;;;;;;;5037018;28;20045;-94
2022/02/01 12:33:51;;;;;;;6.22;3.00;;;;;;;;;;5036533;28;20049;-95
2022/02/01 12:36:21;;;;;;;7.13;1.95;;;;;;;;;;5037041;28;20032;-95
2022/02/01 12:38:50;;;;;;;4.75;1.45;;;;;;;;;;5037264;28;20035;-95
2022/02/01 12:41:17;;;;;;;9.80;2.72;;;;;;;;;;5040933;28;20029;-94
2022/02/01 12:46:46;;;;;;;5.45;2.50;;;;;;;;;;5057201;28;20021;-94
2022/02/01 12:49:13;;;;;;;6.07;2.17;;;;;;;;;;5040852;28;20099;-94
2022/02/01 12:51:40;;;;;;;9.20;3.28;;;;;;;;;;5040627;28;20021;-94
2022/02/01 12:54:06;;;;;;;8.32;2.55;;;;;;;;;;5040518;28;20037;-94
2022/02/01 12:56:33;;;;;;;6.43;2.70;;;;;;;;;;5040328;28;20133;-94
2022/02/01 12:59:00;;;;;;;9.38;2.55;;;;;;;;;;5040539;28;20039;-94
2022/02/01 13:01:37;;;;;;;8.82;2.70;;;;;;;;;;5040125;28;20384;-94
2022/02/01 13:04:03;;;;;;;6.57;3.03;;;;;;;;;;5040853;28;20469;-94
2022/02/01 13:06:33;;;;;;;8.88;2.50;;;;;;;;;;5040122;28;20028;-95
2022/02/01 13:17:17;;;;;;;9.52;4.72;;;;;;;;;;5057920;28;20056;-95
2022/02/01 13:20:11;;;;;;;9.30;2.90;;;;;;;;;;5040162;28;20025;-95
2022/02/01 13:22:48;;;;;;;8.05;2.92;;;;;;;;;;5039997;28;20035;-95
2022/02/01 13:25:16;;;;;;;10.35;2.90;;;;;;;;;;5039782;28;20021;-94
2022/02/01 13:27:43;;;;;;;12.23;3.10;;;;;;;;;;5039859;28;20021;-94
2022/02/01 13:30:13;;;;;;;11.60;3.10;;;;;;;;;;5039812;28;20021;-95
2022/02/01 13:32:42;;;;;;;13.25;2.85;;;;;;;;;;5039482;28;20044;-94
2022/02/01 13:35:14;;;;;;;8.98;3.45;;;;;;;;;;5040081;28;20052;-95
2022/02/01 13:37:47;;;;;;;7.97;3.20;;;;;;;;;;5039623;28;20021;-94
2022/02/01 13:40:26;;;;;;;6.40;3.10;;;;;;;;;;5039624;28;20031;-95
2022/02/01 13:42:59;;;;;;;8.82;3.47;;;;;;;;;;5039565;28;20060;-95
2022/02/01 13:46:01;;;;;;;8.15;2.80;;;;;;;;;;5039703;28;20614;-94
2022/02/01 13:48:29;;;;;;;10.40;3.92;;;;;;;;;;5039464;28;20021;-93
2022/02/01 13:51:06;;;;;;;7.72;3.05;;;;;;;;;;5038640;28;20029;-94
2022/02/01 13:53:40;;;;;;;9.77;3.20;;;;;;;;;;5039434;28;20115;-94
2022/02/01 13:56:09;;;;;;;5.22;2.58;;;;;;;;;;5039726;28;20029;-94
2022/02/01 13:58:36;;;;;;;7.93;2.47;;;;;;;;;;5039244;28;20036;-94
2022/02/01 14:01:05;;;;;;;7.57;2.78;;;;;;;;;;5039014;28;20028;-94
2022/02/01 14:03:42;;;;;;;5.85;2.28;;;;;;;;;;5038888;28;20025;-94
2022/02/01 14:06:43;;;;;;;4.82;2.00;;;;;;;;;;5038920;28;20035;-94
2022/02/01 14:12:28;;;;;;;9.65;2.55;;;;;;;;;;5057011;28;20504;-94
2022/02/01 14:25:47;;;;;;;;;;;;;;;;;;5056914;28;20031;-94
2022/02/01 14:36:07;;;;;;;8.88;4.18;;;;;;;;;;5056475;28;20033;-96
2022/02/01 14:38:58;;;;;;;7.43;3.38;;;;;;;;;;5038569;28;20029;-96
2022/02/01 14:46:58;;;;;;;28.55;3.47;;;;;;;;;;5056847;28;20063;-96
2022/02/01 14:49:27;;;;;;;5.97;1.63;;;;;;;;;;5038525;28;20017;-96
2022/02/01 14:52:01;;;;;;;10.55;2.85;;;;;;;;;;5039302;28;20027;-96
2022/02/01 14:54:33;;;;;;;6.82;3.95;;;;;;;;;;5038928;28;20029;-96
2022/02/01 15:13:37;;;;;;;12.02;3.20;;;;;;;;;;5076097;28;20036;-95
2022/02/01 15:16:06;;;;;;;8.50;2.38;;;;;;;;;;5058107;28;20032;-96
2022/02/01 15:18:40;;;;;;;8.45;3.40;;;;;;;;;;5057880;28;20511;-95
2022/02/01 15:21:07;;;;;;;9.55;3.00;;;;;;;;;;5057606;28;20025;-96
2022/02/01 15:23:42;;;;;;;6.75;3.20;;;;;;;;;;5057477;28;20427;-95
2022/02/01 15:26:08;;;;;;;8.20;3.45;;;;;;;;;;5058041;28;20040;-96
2022/02/01 15:28:37;;;;;;;10.02;2.80;;;;;;;;;;5057377;28;20060;-96
2022/02/01 15:31:10;;;;;;;9.55;2.70;;;;;;;;;;5054712;28;20128;-94
2022/02/01 15:33:39;;;;;;;6.45;3.15;;;;;;;;;;5054175;28;20396;-96
2022/02/01 15:36:08;;;;;;;10.43;2.83;;;;;;;;;;5054008;28;20060;-96
2022/02/01 15:45:54;;;;;;;9.13;2.78;;;;;;;;;;5053877;28;20025;-95
2022/02/01 15:48:39;;;;;;;11.50;3.58;;;;;;;;;;5055446;28;20078;-96
2022/02/01 15:58:18;;;;;;;12.30;5.90;;;;;;;;;;5055634;28;20099;-96
2022/02/01 16:00:47;;;;;;;13.05;3.33;;;;;;;;;;5055036;28;20083;-96
2022/02/01 16:03:28;;;;;;;6.75;2.50;;;;;;;;;;5053854;28;20429;-96
2022/02/01 16:05:58;;;;;;;8.55;2.92;;;;;;;;;;5054189;28;20017;-96
2022/02/01 16:11:02;;;;;;;4.60;2.45;;;;;;;;;;5055439;28;20075;-94
2022/02/01 16:13:40;;;;;;;10.40;2.03;;;;;;;;;;5054697;28;20051;-96
2022/02/01 16:16:09;;;;;;;8.40;2.50;;;;;;;;;;5054048;28;20036;-95
2022/02/01 16:18:39;;;;;;;8.93;2.28;;;;;;;;;;5053841;28;20048;-96
2022/02/01 16:21:07;;;;;;;9.90;3.45;;;;;;;;;;5055121;28;20029;-96
2022/02/01 16:23:37;;;;;;;8.52;2.80;;;;;;;;;;5053945;28;20110;-95
2022/02/01 16:26:07;;;;;;;7.97;2.67;;;;;;;;;;5054096;28;20103;-96
2022/02/01 16:28:38;;;;;;;10.45;2.78;;;;;;;;;;5053306;28;20025;-96
2022/02/01 16:31:19;;;;;;;6.05;2.13;;;;;;;;;;5053816;28;20039;-96
2022/02/01 16:33:48;;;;;;;7.05;2.33;;;;;;;;;;5053022;28;20028;-96
2022/02/01 16:36:20;;;;;;;6.38;2.58;;;;;;;;;;5053065;28;20029;-96
2022/02/01 16:38:49;;;;;;;8.90;2.45;;;;;;;;;;5053212;28;20029;-96
2022/02/01 16:41:18;;;;;;;14.23;1.95;;;;;;;;;;5053119;28;20565;-96
2022/02/01 16:43:47;;;;;;;10.20;2.28;;;;;;;;;;5053085;28;20033;-96
2022/02/01 16:46:27;;;;;;;4.97;1.70;;;;;;;;;;5054162;28;20482;-96
2022/02/01 16:49:01;;;;;;;8.80;2.80;;;;;;;;;;5053163;28;20385;-96
2022/02/01 16:51:27;;;;;;;8.20;3.08;;;;;;;;;;5052893;28;20014;-96
2022/02/01 16:54:01;;;;;;;5.65;1.52;;;;;;;;;;5053503;28;20031;-96
2022/02/01 16:56:44;;;;;;;5.10;1.75;;;;;;;;;;5055210;28;20108;-96
2022/02/01 17:01:48;;;;;;;7.18;1.90;;;;;;;;;;5054904;28;20029;-96
2022/02/01 17:04:31;;;;;;;6.38;1.42;;;;;;;;;;5052913;28;20539;-96
2022/02/01 17:06:57;;;;;;;6.80;2.40;;;;;;;;;;5053483;28;20122;-96
2022/02/01 17:09:28;;;;;;;6.00;2.20;;;;;;;;;;5053750;28;20029;-96
2022/02/01 17:15:08;;;;;;;4.50;1.80;;;;;;;;;;5054449;28;20417;-96
2022/02/01 17:23:18;;;;;;;5.90;1.92;;;;;;;;;;5054783;28;20116;-96
2022/02/01 17:25:47;;;;;;;3.85;1.83;;;;;;;;;;5054483;28;20120;-96
2022/02/01 17:28:20;;;;;;;11.60;2.40;;;;;;;;;;5056898;28;20028;-96
2022/02/01 17:30:46;;;;;;;6.35;1.80;;;;;;;;;;5060018;28;20132;-96
2022/02/01 17:33:20;;;;;;;11.13;3.58;;;;;;;;;;5060760;28;20066;-96
2022/02/01 17:35:49;;;;;;;9.13;3.00;;;;;;;;;;5060332;28;20123;-96
2022/02/01 17:38:20;;;;;;;9.63;2.30;;;;;;;;;;5059792;28;20522;-96
2022/02/01 17:40:47;;;;;;;5.60;1.58;;;;;;;;;;5060669;28;20035;-96
2022/02/01 17:43:20;;;;;;;10.27;2.33;;;;;;;;;;5062296;28;20511;-96
2022/02/01 17:45:49;;;;;;;6.05;1.80;;;;;;;;;;5052685;28;20032;-96
2022/02/01 17:48:16;;;;;;;7.35;1.70;;;;;;;;;;5060081;28;20039;-96
2022/02/01 17:54:18;;;;;;;8.05;1.60;;;;;;;;;;5078181;28;20031;-96
2022/02/01 17:56:39;;;;;;;5.13;1.48;;;;;;;;;;5077521;28;20024;-96
2022/02/01 17:59:08;;;;;;;9.93;3.00;;;;;;;;;;5060525;28;20108;-95
2022/02/01 18:01:38;;;;;;;8.68;2.60;;;;;;;;;;5060222;28;20104;-96
2022/02/01 18:04:17;;;;;;;6.78;1.77;;;;;;;;;;5060045;28;20114;-95